createdAt,value
2023-03-27T00:00:08.774Z,7.95
2023-03-27T00:02:37.953Z,7.99
2023-03-27T00:05:08.072Z,7.88
2023-03-27T00:07:37.372Z,7.84
2023-03-27T00:10:05.614Z,7.71
2023-03-27T00:12:33.544Z,7.81
2023-03-27T00:15:01.875Z,7.82
2023-03-27T00:17:30.246Z,7.88
2023-03-27T00:19:58.540Z,7.80
2023-03-27T00:22:26.468Z,7.42
2023-03-27T00:24:55.825Z,7.46
2023-03-27T00:27:25.136Z,7.37
2023-03-27T00:29:53.990Z,7.41
2023-03-27T00:32:22.039Z,7.27
2023-03-27T00:34:50.111Z,7.12
2023-03-27T00:37:18.150Z,7.35
2023-03-27T00:39:50.088Z,7.73
2023-03-27T00:42:22.912Z,7.83
2023-03-27T00:44:52.096Z,8.03
2023-03-27T00:47:22.940Z,7.88
2023-03-27T00:49:52.690Z,7.60
2023-03-27T00:52:21.439Z,7.49
2023-03-27T00:54:50.065Z,7.34
2023-03-27T00:57:22.047Z,7.29
2023-03-27T00:59:53.839Z,7.76
2023-03-27T01:02:23.086Z,7.48
2023-03-27T01:04:51.646Z,7.30
2023-03-27T01:07:20.916Z,7.17
2023-03-27T01:09:49.784Z,6.97
2023-03-27T01:12:34.685Z,6.73
2023-03-27T01:15:29.930Z,6.94
2023-03-27T01:18:11.235Z,6.87
2023-03-27T01:21:03.887Z,7.14
2023-03-27T01:23:59.670Z,7.14
2023-03-27T01:27:07.547Z,7.19
2023-03-27T01:30:15.411Z,6.82
2023-03-27T01:33:10.679Z,7.17
2023-03-27T01:35:58.155Z,7.11
2023-03-27T01:38:47.099Z,7.40
2023-03-27T01:41:25.505Z,7.53
2023-03-27T01:43:59.490Z,7.41
2023-03-27T01:46:33.366Z,7.49
2023-03-27T01:49:06.839Z,7.35
2023-03-27T01:51:37.990Z,7.60
2023-03-27T01:54:11.749Z,7.72
2023-03-27T01:56:51.670Z,7.57
2023-03-27T01:59:22.243Z,7.59
2023-03-27T02:01:56.179Z,7.44
2023-03-27T02:04:29.077Z,7.27
2023-03-27T02:07:02.873Z,7.40
2023-03-27T02:09:34.500Z,7.20
2023-03-27T02:12:08.446Z,7.17
2023-03-27T02:14:42.046Z,7.21
2023-03-27T02:17:15.006Z,7.40
2023-03-27T02:19:49.264Z,7.45
2023-03-27T02:22:17.324Z,7.15
2023-03-27T02:24:46.300Z,7.01
2023-03-27T02:27:24.075Z,6.91
2023-03-27T02:30:02.990Z,6.77
2023-03-27T02:32:45.942Z,6.77
2023-03-27T02:35:24.308Z,6.77
2023-03-27T02:38:04.923Z,6.76
2023-03-27T02:40:43.428Z,6.65
2023-03-27T02:43:17.949Z,6.60
2023-03-27T02:45:53.594Z,6.75
2023-03-27T02:48:29.092Z,6.75
2023-03-27T02:51:01.922Z,6.84
2023-03-27T02:53:34.921Z,7.06
2023-03-27T02:56:04.860Z,6.78
2023-03-27T02:58:40.503Z,6.60
2023-03-27T03:01:10.778Z,6.63
2023-03-27T03:03:42.106Z,6.68
2023-03-27T03:06:10.973Z,6.48
2023-03-27T03:08:39.591Z,6.59
2023-03-27T03:11:11.206Z,6.73
2023-03-27T03:13:41.082Z,6.61
2023-03-27T03:16:10.512Z,6.56
2023-03-27T03:18:38.479Z,6.75
2023-03-27T03:21:06.954Z,6.84
2023-03-27T03:23:35.115Z,6.99
2023-03-27T03:26:03.793Z,6.81
2023-03-27T03:28:31.810Z,6.78
2023-03-27T03:31:02.801Z,6.80
2023-03-27T03:33:31.184Z,7.02
2023-03-27T03:36:00.913Z,7.16
2023-03-27T03:38:29.986Z,7.16
2023-03-27T03:41:06.899Z,6.99
2023-03-27T03:43:34.885Z,6.85
2023-03-27T03:46:04.531Z,6.77
2023-03-27T03:48:32.423Z,6.78
2023-03-27T03:51:00.407Z,6.87
2023-03-27T03:53:28.294Z,6.75
2023-03-27T03:55:56.363Z,6.72
2023-03-27T03:58:34.055Z,6.86
2023-03-27T04:01:04.948Z,6.79
2023-03-27T04:03:34.127Z,6.61
2023-03-27T04:06:05.523Z,6.53
2023-03-27T04:08:34.376Z,6.78
2023-03-27T04:11:02.361Z,6.58
2023-03-27T04:13:30.702Z,6.78
2023-03-27T04:16:01.787Z,6.76
2023-03-27T04:18:32.940Z,6.81
2023-03-27T04:21:01.191Z,6.84
2023-03-27T04:23:30.451Z,6.73
2023-03-27T04:26:00.233Z,6.89
2023-03-27T04:28:30.415Z,6.53
2023-03-27T04:30:58.884Z,6.83
2023-03-27T04:33:30.598Z,7.06
2023-03-27T04:36:06.360Z,6.69
2023-03-27T04:38:37.061Z,6.63
2023-03-27T04:41:05.604Z,6.49
2023-03-27T04:43:36.807Z,6.91
2023-03-27T04:46:06.011Z,6.61
2023-03-27T04:48:34.048Z,6.61
2023-03-27T04:51:03.366Z,6.61
2023-03-27T04:53:32.337Z,6.71
2023-03-27T04:56:01.377Z,6.70
2023-03-27T04:58:29.378Z,6.60
2023-03-27T05:00:57.936Z,6.77
2023-03-27T05:03:28.393Z,6.99
2023-03-27T05:05:56.323Z,7.43
2023-03-27T05:08:26.230Z,7.62
2023-03-27T05:10:54.296Z,7.50
2023-03-27T05:13:22.701Z,7.94
2023-03-27T05:15:50.896Z,8.39
2023-03-27T05:18:19.087Z,8.45
2023-03-27T05:20:49.660Z,8.55
2023-03-27T05:23:17.621Z,8.97
2023-03-27T05:26:00.095Z,8.93
2023-03-27T05:28:29.310Z,8.64
2023-03-27T05:30:58.365Z,8.89
2023-03-27T05:33:26.689Z,8.62
2023-03-27T05:35:54.604Z,8.90
2023-03-27T05:38:24.615Z,9.16
2023-03-27T05:40:53.981Z,9.21
2023-03-27T05:43:22.017Z,9.26
2023-03-27T05:45:50.003Z,8.87
2023-03-27T05:48:17.965Z,8.87
2023-03-27T05:50:45.951Z,9.11
2023-03-27T05:53:14.020Z,9.44
2023-03-27T05:55:42.205Z,10.31
2023-03-27T05:58:13.375Z,11.25
2023-03-27T06:00:43.118Z,11.42
2023-03-27T06:03:13.842Z,11.49
2023-03-27T06:05:42.113Z,11.88
2023-03-27T06:08:11.648Z,12.18
2023-03-27T06:10:42.054Z,11.81
2023-03-27T06:13:13.659Z,11.07
2023-03-27T06:15:43.154Z,11.07
2023-03-27T06:18:12.367Z,10.90
2023-03-27T06:20:41.132Z,10.45
2023-03-27T06:23:09.372Z,9.18
2023-03-27T06:25:39.844Z,9.65
2023-03-27T06:28:09.845Z,8.96
2023-03-27T06:30:39.289Z,8.99
2023-03-27T06:33:08.751Z,8.72
2023-03-27T06:35:37.043Z,8.79
2023-03-27T06:38:04.970Z,9.17
2023-03-27T06:40:35.486Z,9.39
2023-03-27T06:43:05.826Z,9.59
2023-03-27T06:45:35.536Z,9.67
2023-03-27T06:48:18.820Z,10.39
2023-03-27T06:50:51.091Z,11.12
2023-03-27T06:55:51.436Z,11.68
2023-03-27T06:58:19.808Z,11.89
2023-03-27T07:00:48.958Z,11.25
2023-03-27T07:03:19.845Z,10.75
2023-03-27T07:05:49.088Z,11.53
2023-03-27T07:08:24.384Z,12.04
2023-03-27T07:11:09.792Z,12.53
2023-03-27T07:13:39.200Z,12.97
2023-03-27T07:16:08.385Z,13.56
2023-03-27T07:18:37.798Z,13.37
2023-03-27T07:21:06.155Z,12.50
2023-03-27T07:23:34.070Z,13.66
2023-03-27T07:26:03.303Z,14.22
2023-03-27T07:28:32.793Z,13.69
2023-03-27T07:31:01.032Z,13.32
2023-03-27T07:33:28.962Z,11.92
2023-03-27T07:35:58.493Z,12.21
2023-03-27T07:38:26.724Z,13.52
2023-03-27T07:40:54.620Z,13.00
2023-03-27T07:43:23.112Z,13.46
2023-03-27T07:45:51.225Z,12.66
2023-03-27T07:48:19.192Z,12.58
2023-03-27T07:50:47.883Z,11.77
2023-03-27T07:53:33.198Z,12.25
2023-03-27T07:56:02.816Z,11.70
2023-03-27T07:58:30.839Z,11.66
2023-03-27T08:01:02.473Z,11.95
2023-03-27T08:03:31.616Z,12.05
2023-03-27T08:06:01.263Z,12.17
2023-03-27T08:08:30.836Z,13.32
2023-03-27T08:10:59.840Z,13.25
2023-03-27T08:13:28.019Z,12.47
2023-03-27T08:16:03.919Z,12.39
2023-03-27T08:18:31.806Z,12.51
2023-03-27T08:21:01.720Z,12.12
2023-03-27T08:23:32.692Z,12.26
2023-03-27T08:26:01.249Z,12.16
2023-03-27T08:28:29.751Z,12.24
2023-03-27T08:31:02.852Z,12.36
2023-03-27T08:33:31.539Z,12.23
2023-03-27T08:35:59.814Z,12.60
2023-03-27T08:38:29.333Z,12.76
2023-03-27T08:41:00.122Z,13.01
2023-03-27T08:43:32.016Z,13.55
2023-03-27T08:46:04.680Z,14.48
2023-03-27T08:48:36.756Z,16.33
2023-03-27T08:51:07.928Z,16.86
2023-03-27T08:53:42.796Z,16.66
2023-03-27T08:56:14.702Z,16.98
2023-03-27T08:58:43.373Z,17.22
2023-03-27T09:01:18.656Z,17.41
2023-03-27T09:03:53.451Z,16.53
2023-03-27T09:06:27.898Z,17.24
2023-03-27T09:09:06.587Z,17.83
2023-03-27T09:11:48.902Z,18.19
2023-03-27T09:14:31.097Z,18.38
2023-03-27T09:17:04.831Z,18.67
2023-03-27T09:19:40.310Z,19.06
2023-03-27T09:22:14.332Z,18.52
2023-03-27T09:24:44.670Z,18.98
2023-03-27T09:27:19.046Z,20.03
2023-03-27T09:30:05.333Z,20.20
2023-03-27T09:32:35.050Z,20.69
2023-03-27T09:35:04.673Z,21.01
2023-03-27T09:37:34.543Z,20.98
2023-03-27T09:40:07.999Z,20.74
2023-03-27T09:42:42.371Z,20.45
2023-03-27T09:45:13.806Z,20.48
2023-03-27T09:47:46.731Z,20.03
2023-03-27T09:50:27.791Z,19.65
2023-03-27T09:53:09.402Z,19.69
2023-03-27T09:55:50.634Z,19.45
2023-03-27T09:58:26.356Z,19.46
2023-03-27T10:01:13.395Z,19.41
2023-03-27T10:03:44.298Z,19.80
2023-03-27T10:06:17.262Z,19.80
2023-03-27T10:08:49.992Z,19.85
2023-03-27T10:11:20.523Z,20.16
2023-03-27T10:13:51.694Z,20.26
2023-03-27T10:16:22.859Z,20.16
2023-03-27T10:18:54.956Z,20.14
2023-03-27T10:21:29.440Z,19.89
2023-03-27T10:24:03.202Z,19.81
2023-03-27T10:26:33.480Z,19.70
2023-03-27T10:29:19.035Z,19.76
2023-03-27T10:31:53.066Z,19.57
2023-03-27T10:34:33.873Z,19.44
2023-03-27T10:37:04.966Z,19.25
2023-03-27T10:39:36.588Z,19.39
2023-03-27T10:42:09.197Z,19.04
2023-03-27T10:44:40.825Z,19.18
2023-03-27T10:47:19.148Z,19.16
2023-03-27T10:49:53.917Z,19.28
2023-03-27T10:52:26.578Z,19.26
2023-03-27T10:55:09.269Z,19.18
2023-03-27T10:57:38.721Z,19.38
2023-03-27T11:00:18.584Z,19.41
2023-03-27T11:02:52.371Z,19.62
2023-03-27T11:05:25.817Z,19.78
2023-03-27T11:07:58.113Z,19.86
2023-03-27T11:10:32.513Z,20.09
2023-03-27T11:13:03.805Z,19.81
2023-03-27T11:15:41.108Z,19.36
2023-03-27T11:18:15.767Z,19.86
2023-03-27T11:20:50.391Z,19.85
2023-03-27T11:23:23.020Z,19.70
2023-03-27T11:25:53.666Z,19.61
2023-03-27T11:28:27.102Z,19.58
2023-03-27T11:31:12.511Z,19.36
2023-03-27T11:33:47.972Z,19.19
2023-03-27T11:36:37.705Z,19.46
2023-03-27T11:39:15.488Z,19.78
2023-03-27T11:41:45.371Z,19.90
2023-03-27T11:44:13.278Z,19.95
2023-03-27T11:46:59.290Z,20.36
2023-03-27T11:49:41.501Z,20.74
2023-03-27T11:52:18.884Z,20.93
2023-03-27T11:55:06.699Z,20.56
2023-03-27T11:57:44.784Z,20.62
2023-03-27T12:00:26.411Z,20.30
2023-03-27T12:03:26.212Z,20.09
2023-03-27T12:06:06.891Z,20.20
2023-03-27T12:08:47.275Z,20.39
2023-03-27T12:11:15.504Z,20.57
2023-03-27T12:14:17.560Z,20.64
2023-03-27T12:16:57.581Z,21.09
2023-03-27T12:19:49.877Z,21.15
2023-03-27T12:22:28.762Z,21.04
2023-03-27T12:25:23.900Z,21.35
2023-03-27T12:28:22.638Z,21.61
2023-03-27T12:30:57.565Z,21.87
2023-03-27T12:33:47.728Z,21.86
2023-03-27T12:36:22.361Z,21.42
2023-03-27T12:38:50.431Z,21.63
2023-03-27T12:41:24.282Z,21.69
2023-03-27T12:43:56.879Z,21.20
2023-03-27T12:46:36.737Z,20.70
2023-03-27T12:49:48.040Z,20.62
2023-03-27T12:52:19.364Z,20.44
2023-03-27T12:55:29.681Z,20.40
2023-03-27T12:57:58.556Z,20.34
2023-03-27T13:00:28.822Z,20.16
2023-03-27T13:03:25.487Z,20.00
2023-03-27T13:06:16.547Z,20.25
2023-03-27T13:09:05.335Z,20.35
2023-03-27T13:11:48.108Z,20.38
2023-03-27T13:14:34.262Z,20.60
2023-03-27T13:17:25.985Z,20.34
2023-03-27T13:20:06.501Z,20.41
2023-03-27T13:22:46.954Z,20.41
2023-03-27T13:25:31.662Z,20.25
2023-03-27T13:28:32.542Z,20.37
2023-03-27T13:31:01.867Z,20.35
2023-03-27T13:33:43.829Z,20.08
2023-03-27T13:36:17.756Z,19.82
2023-03-27T13:39:18.660Z,19.30
2023-03-27T13:42:07.951Z,18.90
2023-03-27T13:44:45.094Z,18.35
2023-03-27T13:47:40.110Z,17.72
2023-03-27T13:50:23.369Z,16.73
2023-03-27T13:53:23.883Z,15.73
2023-03-27T13:56:18.773Z,14.52
2023-03-27T13:59:15.115Z,13.82
2023-03-27T14:01:53.090Z,12.64
2023-03-27T14:04:46.004Z,12.44
2023-03-27T14:07:42.653Z,12.61
2023-03-27T14:10:21.319Z,12.04
2023-03-27T14:13:00.798Z,11.80
2023-03-27T14:15:51.174Z,11.81
2023-03-27T14:18:44.470Z,11.43
2023-03-27T14:21:27.628Z,11.11
2023-03-27T14:24:08.774Z,10.95
2023-03-27T14:26:37.979Z,10.89
2023-03-27T14:29:07.157Z,10.79
2023-03-27T14:31:38.659Z,11.04
2023-03-27T14:34:18.347Z,11.10
2023-03-27T14:36:49.870Z,11.02
2023-03-27T14:39:21.418Z,11.04
2023-03-27T14:41:53.491Z,10.89
2023-03-27T14:44:22.561Z,10.71
2023-03-27T14:46:55.226Z,10.21
2023-03-27T14:49:29.839Z,10.16
2023-03-27T14:52:04.023Z,10.40
2023-03-27T14:54:41.746Z,10.55
2023-03-27T14:57:17.057Z,10.58
2023-03-27T14:59:47.393Z,10.50
2023-03-27T15:02:21.636Z,10.30
2023-03-27T15:04:50.306Z,10.19
2023-03-27T15:07:19.801Z,10.32
2023-03-27T15:09:48.526Z,10.26
2023-03-27T15:12:16.533Z,10.30
2023-03-27T15:14:44.471Z,10.30
2023-03-27T15:17:17.806Z,10.47
2023-03-27T15:19:50.721Z,10.50
2023-03-27T15:22:23.045Z,10.46
2023-03-27T15:24:57.150Z,10.31
2023-03-27T15:27:29.620Z,10.36
2023-03-27T15:29:59.537Z,10.21
2023-03-27T15:32:32.391Z,10.02
2023-03-27T15:35:05.354Z,9.80
2023-03-27T15:37:35.017Z,9.80
2023-03-27T15:40:32.996Z,9.97
2023-03-27T15:43:07.873Z,10.25
2023-03-27T15:45:39.910Z,10.46
2023-03-27T15:48:19.092Z,10.29
2023-03-27T15:50:59.365Z,10.21
2023-03-27T15:53:38.405Z,10.53
2023-03-27T15:56:16.890Z,10.52
2023-03-27T15:58:49.464Z,10.50
2023-03-27T16:01:21.551Z,10.43
2023-03-27T16:03:51.353Z,10.40
2023-03-27T16:06:33.503Z,10.32
2023-03-27T16:09:01.886Z,10.33
2023-03-27T16:11:43.784Z,10.10
2023-03-27T16:14:24.180Z,10.11
2023-03-27T16:17:09.722Z,10.35
2023-03-27T16:19:43.344Z,10.53
2023-03-27T16:22:13.258Z,10.60
2023-03-27T16:24:41.427Z,10.50
2023-03-27T16:27:11.196Z,10.15
2023-03-27T16:29:39.112Z,10.40
2023-03-27T16:32:07.130Z,10.59
2023-03-27T16:34:35.230Z,10.67
2023-03-27T16:37:03.274Z,10.47
2023-03-27T16:39:33.534Z,10.43
2023-03-27T16:42:01.609Z,10.20
2023-03-27T16:44:29.510Z,9.77
2023-03-27T16:46:57.584Z,9.58
2023-03-27T16:49:25.554Z,9.36
2023-03-27T16:51:53.528Z,9.54
2023-03-27T16:54:21.418Z,9.57
2023-03-27T16:56:52.166Z,9.69
2023-03-27T16:59:20.679Z,9.83
2023-03-27T17:01:48.645Z,10.02
2023-03-27T17:04:16.584Z,9.84
2023-03-27T17:06:44.536Z,9.88
2023-03-27T17:09:12.641Z,9.75
2023-03-27T17:11:40.903Z,9.89
2023-03-27T17:14:10.581Z,10.25
2023-03-27T17:16:38.613Z,10.21
2023-03-27T17:19:07.865Z,10.25
2023-03-27T17:21:35.822Z,10.10
2023-03-27T17:24:03.726Z,10.32
2023-03-27T17:26:34.388Z,10.35
2023-03-27T17:29:03.392Z,10.34
2023-03-27T17:31:33.159Z,10.39
2023-03-27T17:34:01.797Z,10.51
2023-03-27T17:36:41.056Z,10.46
2023-03-27T17:39:10.978Z,10.41
2023-03-27T17:41:38.979Z,10.37
2023-03-27T17:44:07.987Z,10.38
2023-03-27T17:46:37.472Z,10.38
2023-03-27T17:49:05.630Z,10.36
2023-03-27T17:51:34.274Z,10.22
2023-03-27T17:54:02.344Z,10.27
2023-03-27T17:56:30.598Z,10.29
2023-03-27T17:58:58.575Z,10.22
2023-03-27T18:01:26.620Z,10.07
2023-03-27T18:03:57.906Z,10.15
2023-03-27T18:06:25.936Z,10.25
2023-03-27T18:08:54.027Z,10.19
2023-03-27T18:11:21.984Z,10.31
2023-03-27T18:13:53.116Z,10.20
2023-03-27T18:16:22.225Z,10.38
2023-03-27T18:18:51.103Z,10.27
2023-03-27T18:21:20.489Z,10.43
2023-03-27T18:23:48.762Z,10.37
2023-03-27T18:26:17.168Z,10.43
2023-03-27T18:28:45.454Z,10.45
2023-03-27T18:31:13.654Z,10.43
2023-03-27T18:33:41.645Z,10.19
2023-03-27T18:36:12.140Z,10.13
2023-03-27T18:38:42.894Z,10.09
2023-03-27T18:41:11.432Z,10.29
2023-03-27T18:43:39.377Z,10.21
2023-03-27T18:46:08.657Z,10.10
2023-03-27T18:48:36.732Z,10.19
2023-03-27T18:51:06.727Z,10.23
2023-03-27T18:53:34.807Z,10.02
2023-03-27T18:56:05.361Z,9.98
2023-03-27T18:58:33.948Z,10.03
2023-03-27T19:01:01.918Z,10.01
2023-03-27T19:03:35.020Z,10.15
2023-03-27T19:06:05.074Z,10.13
2023-03-27T19:08:33.788Z,10.24
2023-03-27T19:11:03.166Z,10.07
2023-03-27T19:13:31.165Z,10.18
2023-03-27T19:15:59.216Z,10.31
2023-03-27T19:18:30.135Z,10.27
2023-03-27T19:21:00.740Z,10.23
2023-03-27T19:23:29.885Z,10.29
2023-03-27T19:26:06.315Z,10.25
2023-03-27T19:28:35.921Z,10.33
2023-03-27T19:31:07.340Z,10.15
2023-03-27T19:33:35.351Z,10.23
2023-03-27T19:36:03.449Z,10.12
2023-03-27T19:38:32.033Z,10.02
2023-03-27T19:41:00.178Z,9.89
2023-03-27T19:43:28.285Z,9.88
2023-03-27T19:46:14.924Z,9.85
2023-03-27T19:48:44.146Z,9.91
2023-03-27T19:51:12.210Z,9.65
2023-03-27T19:53:40.372Z,9.78
2023-03-27T19:56:08.396Z,9.78
2023-03-27T19:58:36.369Z,9.87
2023-03-27T20:01:07.141Z,9.96
2023-03-27T20:03:38.727Z,9.69
2023-03-27T20:06:12.951Z,9.98
2023-03-27T20:08:42.513Z,9.84
2023-03-27T20:11:10.589Z,9.88
2023-03-27T20:13:53.032Z,9.73
2023-03-27T20:16:27.675Z,9.50
2023-03-27T20:19:03.238Z,9.61
2023-03-27T20:21:33.687Z,9.48
2023-03-27T20:24:01.720Z,9.36
2023-03-27T20:26:32.499Z,9.29
2023-03-27T20:29:00.512Z,9.44
2023-03-27T20:31:29.874Z,9.50
2023-03-27T20:33:57.821Z,9.29
2023-03-27T20:36:26.220Z,9.19
2023-03-27T20:38:55.119Z,8.95
2023-03-27T20:41:27.048Z,9.01
2023-03-27T20:43:55.030Z,9.11
2023-03-27T20:46:23.046Z,9.09
2023-03-27T20:48:55.114Z,8.87
2023-03-27T20:51:24.668Z,8.80
2023-03-27T20:53:56.138Z,9.09
2023-03-27T20:56:25.019Z,9.23
2023-03-27T20:58:52.979Z,9.26
2023-03-27T21:01:21.037Z,9.12
2023-03-27T21:03:49.779Z,9.29
2023-03-27T21:06:22.144Z,9.40
2023-03-27T21:08:50.683Z,9.46
2023-03-27T21:11:18.777Z,9.65
2023-03-27T21:13:47.064Z,9.53
2023-03-27T21:16:15.137Z,9.49
2023-03-27T21:18:43.205Z,9.51
2023-03-27T21:21:11.392Z,9.43
2023-03-27T21:23:40.732Z,9.35
2023-03-27T21:26:08.846Z,9.44
2023-03-27T21:28:36.753Z,9.11
2023-03-27T21:31:07.716Z,9.23
2023-03-27T21:33:36.154Z,9.33
2023-03-27T21:36:04.401Z,9.46
2023-03-27T21:38:32.452Z,9.10
2023-03-27T21:41:04.164Z,9.07
2023-03-27T21:43:32.333Z,9.31
2023-03-27T21:46:02.193Z,9.24
2023-03-27T21:48:31.170Z,9.34
2023-03-27T21:51:03.511Z,9.36
2023-03-27T21:53:31.499Z,9.44
2023-03-27T21:55:59.961Z,9.39
2023-03-27T21:58:29.403Z,9.47
2023-03-27T22:00:58.875Z,9.44
2023-03-27T22:03:29.010Z,9.44
2023-03-27T22:06:10.042Z,9.26
2023-03-27T22:08:40.135Z,9.10
2023-03-27T22:11:08.451Z,9.02
2023-03-27T22:13:38.271Z,9.21
2023-03-27T22:16:09.855Z,9.35
2023-03-27T22:18:37.941Z,9.37
2023-03-27T22:21:17.491Z,9.35
2023-03-27T22:23:45.805Z,9.34
2023-03-27T22:26:14.138Z,9.29
2023-03-27T22:28:43.470Z,9.21
2023-03-27T22:31:11.800Z,9.15
2023-03-27T22:33:40.064Z,9.30
2023-03-27T22:36:11.170Z,9.25
2023-03-27T22:38:40.050Z,9.28
2023-03-27T22:41:09.358Z,9.32
2023-03-27T22:43:37.709Z,9.26
2023-03-27T22:46:08.899Z,9.24
2023-03-27T22:48:36.998Z,9.23
2023-03-27T22:51:05.722Z,9.38
2023-03-27T22:53:34.152Z,9.42
2023-03-27T22:56:03.193Z,9.33
2023-03-27T22:58:32.152Z,9.23
2023-03-27T23:01:00.631Z,9.25
2023-03-27T23:03:31.343Z,9.27
2023-03-27T23:05:59.595Z,9.17
2023-03-27T23:08:28.632Z,9.21
2023-03-27T23:10:58.347Z,9.28
2023-03-27T23:13:28.010Z,9.27
2023-03-27T23:15:56.937Z,9.24
2023-03-27T23:18:25.806Z,8.95
2023-03-27T23:21:00.056Z,9.17
2023-03-27T23:23:29.918Z,9.14
2023-03-27T23:25:58.928Z,9.09
2023-03-27T23:28:30.429Z,9.21
2023-03-27T23:31:00.095Z,9.18
2023-03-27T23:33:28.904Z,8.93
2023-03-27T23:36:04.294Z,8.99
2023-03-27T23:38:32.991Z,9.07
2023-03-27T23:41:02.028Z,9.05
2023-03-27T23:43:31.625Z,8.99
2023-03-27T23:46:00.809Z,9.06
2023-03-27T23:48:29.802Z,8.95
2023-03-27T23:50:58.614Z,8.86
2023-03-27T23:53:29.157Z,8.51
2023-03-27T23:55:58.800Z,8.88
2023-03-27T23:58:32.108Z,8.90
